Time;durP1;ratioP1;P1;durP2;ratioP2;P2;SDS_P1;SDS_P2;PMS_P1;PMS_P2;Temp;Humidity;BMP_temperature;BMP_pressure;BME280_temperature;BME280_humidity;BME280_pressure;Samples;Min_cycle;Max_cycle;Signal;HPM_P1;HPM_P2
2023/03/18 00:01:59;;;;;;;4.70;2.60;;;11.90;89.20;;;;;;5034951;28;20449;-61
2023/03/18 00:04:26;;;;;;;5.10;3.00;;;11.80;90.60;;;;;;5034261;28;20935;-62
2023/03/18 00:06:52;;;;;;;3.13;2.53;;;11.80;91.60;;;;;;5034802;28;20978;-62
2023/03/18 00:09:19;;;;;;;6.43;3.40;;;11.80;92.50;;;;;;5035336;28;20814;-62
2023/03/18 00:11:46;;;;;;;7.00;2.87;;;11.70;93.50;;;;;;5035661;28;20451;-61
2023/03/18 00:14:13;;;;;;;4.10;3.10;;;11.60;94.60;;;;;;5035164;28;20452;-61
2023/03/18 00:16:41;;;;;;;4.50;3.07;;;11.60;95.50;;;;;;5034632;28;20441;-61
2023/03/18 00:19:08;;;;;;;3.50;2.50;;;11.50;96.50;;;;;;5034633;28;20453;-61
2023/03/18 00:21:35;;;;;;;4.23;2.50;;;11.50;97.50;;;;;;5034922;28;20441;-60
2023/03/18 00:24:01;;;;;;;5.53;3.13;;;11.50;98.30;;;;;;5034732;28;20540;-61
2023/03/18 00:26:28;;;;;;;4.83;3.17;;;11.50;99.10;;;;;;5034584;28;20449;-61
2023/03/18 00:28:56;;;;;;;3.90;2.67;;;11.40;99.60;;;;;;5035030;28;20468;-62
2023/03/18 00:31:24;;;;;;;5.80;2.80;;;11.40;99.90;;;;;;5035897;28;20453;-61
2023/03/18 00:33:52;;;;;;;3.80;3.03;;;11.40;99.90;;;;;;5034691;28;20447;-62
2023/03/18 00:36:24;;;;;;;5.30;3.43;;;11.40;99.90;;;;;;5035579;28;20471;-61
2023/03/18 00:38:56;;;;;;;4.63;3.20;;;11.40;99.90;;;;;;5034866;28;20818;-60
2023/03/18 00:41:24;;;;;;;2.60;2.40;;;11.40;99.90;;;;;;5035412;28;20499;-62
2023/03/18 00:43:52;;;;;;;4.27;2.53;;;11.40;99.90;;;;;;5033931;28;20487;-61
2023/03/18 00:46:23;;;;;;;3.10;2.47;;;11.40;99.90;;;;;;5034137;28;20453;-61
2023/03/18 00:48:52;;;;;;;3.93;2.70;;;11.40;99.90;;;;;;5033719;28;20465;-61
2023/03/18 00:51:21;;;;;;;3.73;2.80;;;11.30;99.90;;;;;;5034533;28;20445;-62
2023/03/18 00:53:50;;;;;;;3.03;2.47;;;11.30;99.90;;;;;;5036371;28;20516;-61
2023/03/18 00:56:20;;;;;;;3.63;2.40;;;11.30;99.90;;;;;;5039799;28;20473;-60
2023/03/18 00:58:49;;;;;;;3.40;2.70;;;11.30;99.90;;;;;;5039255;28;20496;-61
2023/03/18 01:01:16;;;;;;;4.13;2.40;;;11.40;99.90;;;;;;5040297;28;20560;-60
2023/03/18 01:03:45;;;;;;;5.10;2.57;;;11.40;99.90;;;;;;5040027;28;20483;-60
2023/03/18 01:06:16;;;;;;;4.20;2.70;;;11.40;99.90;;;;;;5038889;28;20453;-60
2023/03/18 01:08:43;;;;;;;3.13;2.50;;;11.40;99.90;;;;;;5035345;28;20469;-61
2023/03/18 01:11:10;;;;;;;3.37;2.70;;;11.40;99.90;;;;;;5033833;28;20551;-61
2023/03/18 01:13:39;;;;;;;3.60;2.73;;;11.30;99.90;;;;;;5033361;28;20942;-61
2023/03/18 01:16:07;;;;;;;4.83;3.00;;;11.30;99.90;;;;;;5034179;28;20448;-61
2023/03/18 01:18:35;;;;;;;3.60;2.70;;;11.30;99.90;;;;;;5033252;28;20469;-61
2023/03/18 01:21:03;;;;;;;4.30;2.97;;;11.30;99.90;;;;;;5033684;28;20453;-61
2023/03/18 01:23:31;;;;;;;6.23;3.13;;;11.30;99.90;;;;;;5033298;28;20481;-61
2023/03/18 01:25:58;;;;;;;4.47;2.47;;;11.30;99.90;;;;;;5033366;28;20449;-61
2023/03/18 01:28:26;;;;;;;4.17;3.10;;;11.30;99.90;;;;;;5032956;28;20480;-60
2023/03/18 01:30:54;;;;;;;4.40;3.03;;;11.30;99.90;;;;;;5033247;28;20452;-60
2023/03/18 01:33:21;;;;;;;4.80;2.90;;;11.30;99.90;;;;;;5033442;28;20532;-61
2023/03/18 01:35:54;;;;;;;4.97;2.87;;;11.30;99.90;;;;;;5033439;28;20822;-61
2023/03/18 01:38:21;;;;;;;4.67;3.20;;;11.30;99.90;;;;;;5033780;28;20496;-60
2023/03/18 01:40:49;;;;;;;5.13;3.10;;;11.30;99.90;;;;;;5033946;28;20847;-61
2023/03/18 01:43:20;;;;;;;3.23;2.90;;;11.30;99.90;;;;;;5033957;28;20477;-61
2023/03/18 01:45:49;;;;;;;3.73;2.73;;;11.30;99.90;;;;;;5033700;28;20430;-60
2023/03/18 01:48:17;;;;;;;4.20;2.80;;;11.30;99.90;;;;;;5033754;28;20465;-61
2023/03/18 01:50:46;;;;;;;7.43;3.03;;;11.30;99.90;;;;;;5033772;28;20931;-60
2023/03/18 01:53:16;;;;;;;5.13;3.00;;;11.30;99.90;;;;;;5034141;28;20452;-60
2023/03/18 01:55:45;;;;;;;4.20;3.30;;;11.30;99.90;;;;;;5033730;28;20448;-61
2023/03/18 01:58:17;;;;;;;5.13;3.40;;;11.20;99.90;;;;;;5033639;28;20469;-61
2023/03/18 02:00:48;;;;;;;5.17;3.57;;;11.20;99.90;;;;;;5033382;28;20504;-60
2023/03/18 02:03:15;;;;;;;3.07;2.80;;;11.20;99.90;;;;;;5033749;28;20465;-61
2023/03/18 02:05:43;;;;;;;4.77;3.20;;;11.20;99.90;;;;;;5032848;28;20445;-62
2023/03/18 02:08:10;;;;;;;6.00;3.50;;;11.20;99.90;;;;;;5033580;28;20467;-61
2023/03/18 02:10:37;;;;;;;4.30;3.20;;;11.10;99.90;;;;;;5033776;28;20471;-61
2023/03/18 02:13:06;;;;;;;4.40;3.37;;;11.10;99.90;;;;;;5033861;28;20437;-60
2023/03/18 02:15:38;;;;;;;4.30;3.00;;;11.10;99.90;;;;;;5033727;28;20451;-60
2023/03/18 02:18:09;;;;;;;5.77;3.70;;;11.10;99.90;;;;;;5033285;28;20465;-61
2023/03/18 02:20:48;;;;;;;4.80;3.60;;;11.10;99.90;;;;;;5033387;28;20425;-61
2023/03/18 02:23:23;;;;;;;5.10;3.57;;;11.10;99.90;;;;;;5033387;28;20468;-62
2023/03/18 02:25:56;;;;;;;4.50;3.13;;;11.10;99.90;;;;;;5033363;28;20435;-62
2023/03/18 02:28:27;;;;;;;5.30;3.47;;;11.10;99.90;;;;;;5035792;28;20476;-61
2023/03/18 02:30:56;;;;;;;4.43;3.90;;;11.00;99.90;;;;;;5037401;28;20429;-61
2023/03/18 02:33:26;;;;;;;5.00;3.60;;;11.00;99.90;;;;;;5037148;28;20519;-62
2023/03/18 02:35:58;;;;;;;5.57;3.70;;;11.00;99.90;;;;;;5036910;28;20437;-61
2023/03/18 02:38:25;;;;;;;7.57;3.77;;;11.00;99.90;;;;;;5036690;28;20475;-60
2023/03/18 02:40:53;;;;;;;6.37;4.70;;;11.00;99.90;;;;;;5036891;28;20445;-61
2023/03/18 02:43:23;;;;;;;9.10;4.60;;;11.00;99.90;;;;;;5036913;28;20477;-62
2023/03/18 02:46:11;;;;;;;7.30;5.23;;;11.00;99.90;;;;;;5036544;28;20551;-61
2023/03/18 02:48:41;;;;;;;6.67;4.07;;;10.90;99.90;;;;;;5036838;28;20473;-61
2023/03/18 02:51:09;;;;;;;10.40;5.97;;;10.90;99.90;;;;;;5038448;28;20811;-62
2023/03/18 02:53:36;;;;;;;7.10;5.30;;;10.90;99.90;;;;;;5036607;28;20445;-61
2023/03/18 02:56:02;;;;;;;11.20;5.73;;;11.00;99.90;;;;;;5036880;28;20440;-61
2023/03/18 02:58:29;;;;;;;8.10;5.27;;;11.00;99.90;;;;;;5036608;28;20472;-61
2023/03/18 03:00:57;;;;;;;4.83;4.33;;;10.90;99.90;;;;;;5036190;28;20465;-61
2023/03/18 03:03:26;;;;;;;8.00;6.10;;;10.90;99.90;;;;;;5036518;28;20508;-62
2023/03/18 03:05:53;;;;;;;11.57;6.03;;;10.90;99.90;;;;;;5036433;28;20443;-61
2023/03/18 03:08:20;;;;;;;8.80;6.60;;;10.90;99.90;;;;;;5037169;28;20460;-62
2023/03/18 03:10:49;;;;;;;12.03;7.17;;;10.80;99.90;;;;;;5036603;28;20531;-62
2023/03/18 03:13:17;;;;;;;11.57;7.43;;;10.80;99.90;;;;;;5036427;28;20452;-62
2023/03/18 03:15:43;;;;;;;8.47;7.00;;;10.80;99.90;;;;;;5036263;28;20449;-62
2023/03/18 03:18:10;;;;;;;9.27;6.67;;;10.80;99.90;;;;;;5036250;28;20465;-66
2023/03/18 03:20:38;;;;;;;10.97;7.50;;;10.80;99.90;;;;;;5035745;28;20445;-61
2023/03/18 03:23:06;;;;;;;11.37;7.27;;;10.70;99.90;;;;;;5035441;28;20482;-61
2023/03/18 03:25:34;;;;;;;14.73;7.93;;;10.70;99.90;;;;;;5036054;28;20445;-62
2023/03/18 03:28:01;;;;;;;9.83;8.30;;;10.70;99.90;;;;;;5035790;28;20899;-61
2023/03/18 03:30:29;;;;;;;13.17;7.90;;;10.70;99.90;;;;;;5036090;28;20448;-62
2023/03/18 03:32:56;;;;;;;8.03;7.23;;;10.70;99.90;;;;;;5036544;28;20489;-61
2023/03/18 03:35:24;;;;;;;12.50;7.20;;;10.60;99.90;;;;;;5036227;28;20539;-62
2023/03/18 03:37:52;;;;;;;7.63;6.47;;;10.70;99.90;;;;;;5035797;28;20465;-62
2023/03/18 03:40:20;;;;;;;8.70;6.57;;;10.70;99.90;;;;;;5036035;28;20456;-61
2023/03/18 03:42:48;;;;;;;7.63;6.13;;;10.60;99.90;;;;;;5035789;28;20449;-62
2023/03/18 03:45:17;;;;;;;7.70;6.50;;;10.60;99.90;;;;;;5035115;28;20477;-61
2023/03/18 03:47:46;;;;;;;9.00;6.63;;;10.60;99.90;;;;;;5035159;28;20480;-62
2023/03/18 03:50:13;;;;;;;11.60;6.83;;;10.60;99.90;;;;;;5035057;28;20511;-62
2023/03/18 03:52:40;;;;;;;8.60;6.60;;;10.60;99.90;;;;;;5034888;28;20927;-62
2023/03/18 03:55:11;;;;;;;10.50;7.13;;;10.60;99.90;;;;;;5035457;28;20449;-62
2023/03/18 03:57:38;;;;;;;10.33;6.80;;;10.50;99.90;;;;;;5035594;28;20473;-62
2023/03/18 04:00:12;;;;;;;14.10;8.80;;;10.60;99.90;;;;;;5035357;28;20456;-61
2023/03/18 04:02:38;;;;;;;10.83;7.60;;;10.50;99.90;;;;;;5035158;28;20476;-60
2023/03/18 04:05:06;;;;;;;9.20;6.83;;;10.50;99.90;;;;;;5035080;28;20481;-61
2023/03/18 04:07:33;;;;;;;9.97;7.17;;;10.50;99.90;;;;;;5034922;28;20465;-61
2023/03/18 04:11:24;;;;;;;9.83;7.40;;;10.50;99.90;;;;;;5119664;27;20552;-62
2023/03/18 04:13:51;;;;;;;13.83;7.93;;;10.50;99.90;;;;;;5117831;28;20528;-62
2023/03/18 04:16:17;;;;;;;14.00;8.10;;;10.50;99.90;;;;;;5114492;28;20452;-61
2023/03/18 04:18:44;;;;;;;13.63;8.97;;;10.50;99.90;;;;;;5112934;28;20975;-60
2023/03/18 04:21:11;;;;;;;12.37;8.00;;;10.50;99.90;;;;;;5115327;28;20469;-62
2023/03/18 04:23:38;;;;;;;11.80;9.37;;;10.50;99.90;;;;;;5138545;22;20449;-63
2023/03/18 04:26:05;;;;;;;11.57;8.97;;;10.50;99.90;;;;;;5050027;28;20431;-62
2023/03/18 04:28:33;;;;;;;10.00;8.77;;;10.40;99.90;;;;;;5049957;28;20436;-62
2023/03/18 04:31:00;;;;;;;13.60;9.07;;;10.40;99.90;;;;;;5049887;28;20559;-63
2023/03/18 04:33:26;;;;;;;11.83;8.77;;;10.40;99.90;;;;;;5049799;28;20444;-63
2023/03/18 04:35:53;;;;;;;10.20;7.57;;;10.40;99.90;;;;;;5049972;28;20494;-63
2023/03/18 04:38:20;;;;;;;12.53;8.10;;;10.40;99.90;;;;;;5049934;28;20440;-63
2023/03/18 04:40:47;;;;;;;9.97;8.00;;;10.40;99.90;;;;;;5049498;28;20476;-63
2023/03/18 04:43:14;;;;;;;12.80;9.10;;;10.40;99.90;;;;;;5049670;28;20440;-62
2023/03/18 04:45:42;;;;;;;10.93;8.03;;;10.40;99.90;;;;;;5049600;28;20495;-63
2023/03/18 04:48:09;;;;;;;10.00;7.80;;;10.30;99.90;;;;;;5049338;28;20949;-63
2023/03/18 04:50:36;;;;;;;9.27;8.07;;;10.30;99.90;;;;;;5049547;28;20512;-62
2023/03/18 04:53:03;;;;;;;10.53;8.73;;;10.30;99.90;;;;;;5049557;28;20447;-63
2023/03/18 04:55:30;;;;;;;12.10;8.70;;;10.30;99.90;;;;;;5049339;28;20554;-64
2023/03/18 04:57:57;;;;;;;12.63;7.77;;;10.30;99.90;;;;;;5049167;28;20452;-63
2023/03/18 05:00:25;;;;;;;9.00;6.60;;;10.40;99.90;;;;;;5049238;28;20865;-63
2023/03/18 05:02:53;;;;;;;8.13;7.27;;;10.30;99.90;;;;;;5049192;28;20815;-62
2023/03/18 05:05:20;;;;;;;8.30;6.50;;;10.30;99.90;;;;;;5049392;28;20460;-61
2023/03/18 05:07:46;;;;;;;9.60;6.90;;;10.20;99.90;;;;;;5049768;28;20444;-64
2023/03/18 05:10:13;;;;;;;10.33;7.60;;;10.10;99.90;;;;;;5049650;28;20482;-62
2023/03/18 05:12:40;;;;;;;9.97;6.83;;;10.10;99.90;;;;;;5049864;28;20440;-61
2023/03/18 05:15:08;;;;;;;10.13;6.70;;;10.00;99.90;;;;;;5049442;28;20475;-63
2023/03/18 05:17:35;;;;;;;8.93;6.73;;;10.00;99.90;;;;;;5049429;28;20551;-62
2023/03/18 05:20:03;;;;;;;11.80;6.70;;;9.90;99.90;;;;;;5049105;28;20444;-63
2023/03/18 05:22:30;;;;;;;12.05;7.72;;;9.80;99.90;;;;;;5036877;28;20276;-62
2023/03/18 05:24:57;;;;;;;11.95;6.65;;;9.80;99.90;;;;;;5035361;28;20378;-63
2023/03/18 05:27:26;;;;;;;10.50;8.10;;;9.70;99.90;;;;;;5035914;28;20285;-63
2023/03/18 05:29:53;;;;;;;11.07;7.00;;;9.70;99.90;;;;;;5035485;28;20229;-63
2023/03/18 05:32:19;;;;;;;11.60;6.80;;;9.70;99.90;;;;;;5035722;28;20448;-62
2023/03/18 05:34:46;;;;;;;9.93;6.55;;;9.70;99.90;;;;;;5035324;28;20469;-63
2023/03/18 05:37:15;;;;;;;7.80;6.38;;;9.60;99.90;;;;;;5036074;28;20202;-63
2023/03/18 05:39:42;;;;;;;8.50;7.60;;;9.70;99.90;;;;;;5035449;28;20206;-62
2023/03/18 05:42:09;;;;;;;8.88;7.60;;;9.70;99.90;;;;;;5035324;28;20549;-63
2023/03/18 05:44:36;;;;;;;10.50;6.47;;;9.70;99.90;;;;;;5035367;28;20233;-63
2023/03/18 05:47:02;;;;;;;9.07;6.40;;;9.70;99.90;;;;;;5035517;28;20537;-62
2023/03/18 05:49:30;;;;;;;10.80;7.85;;;9.70;99.90;;;;;;5035058;28;20213;-62
2023/03/18 05:51:56;;;;;;;8.98;6.68;;;9.80;99.90;;;;;;5035369;28;20242;-62
2023/03/18 05:54:24;;;;;;;8.75;7.20;;;9.80;99.90;;;;;;5035166;28;20223;-64
2023/03/18 05:56:52;;;;;;;11.38;7.30;;;9.80;99.90;;;;;;5035039;28;20203;-62
2023/03/18 05:59:24;;;;;;;10.18;7.20;;;9.90;99.90;;;;;;5035093;28;20283;-62
2023/03/18 06:01:51;;;;;;;7.77;5.80;;;9.90;99.90;;;;;;5035862;28;20189;-62
2023/03/18 06:04:19;;;;;;;8.52;6.85;;;9.90;99.90;;;;;;5035266;28;20469;-62
2023/03/18 06:06:47;;;;;;;11.47;7.00;;;9.90;99.90;;;;;;5035131;28;20206;-62
2023/03/18 06:09:14;;;;;;;15.65;6.72;;;9.90;99.90;;;;;;5035515;28;20491;-61
2023/03/18 06:11:42;;;;;;;7.17;6.30;;;10.00;99.90;;;;;;5035563;28;20223;-61
2023/03/18 06:14:10;;;;;;;10.02;6.63;;;10.00;99.90;;;;;;5035287;28;20496;-62
2023/03/18 06:16:36;;;;;;;9.20;7.33;;;10.00;99.90;;;;;;5035377;28;20206;-63
2023/03/18 06:19:04;;;;;;;9.97;7.30;;;10.00;99.90;;;;;;5036672;28;20451;-63
2023/03/18 06:21:32;;;;;;;7.43;6.32;;;10.10;99.90;;;;;;5035182;28;20801;-63
2023/03/18 06:23:59;;;;;;;8.63;6.03;;;10.20;99.90;;;;;;5034898;28;20241;-63
2023/03/18 06:26:26;;;;;;;9.03;6.10;;;10.20;99.90;;;;;;5034723;28;20225;-62
2023/03/18 06:28:55;;;;;;;9.03;5.40;;;10.30;99.90;;;;;;5034992;28;20477;-63
2023/03/18 06:31:22;;;;;;;9.80;6.07;;;10.30;99.90;;;;;;5034561;28;20527;-63
2023/03/18 06:33:49;;;;;;;5.47;4.97;;;10.40;99.90;;;;;;5033667;28;20464;-63
2023/03/18 06:36:16;;;;;;;10.03;5.93;;;10.40;99.90;;;;;;5034643;28;20206;-63
2023/03/18 06:38:43;;;;;;;7.77;5.50;;;10.50;99.90;;;;;;5034546;28;20445;-64
2023/03/18 06:41:10;;;;;;;7.23;6.07;;;10.50;99.90;;;;;;5034620;28;20449;-63
2023/03/18 06:43:38;;;;;;;6.27;5.07;;;10.50;99.90;;;;;;5034646;28;20536;-63
2023/03/18 06:46:06;;;;;;;8.00;5.47;;;10.50;99.90;;;;;;5035059;28;20456;-63
2023/03/18 06:48:33;;;;;;;5.87;4.90;;;10.50;99.90;;;;;;5034631;28;20449;-63
2023/03/18 06:51:00;;;;;;;6.50;4.67;;;10.50;99.90;;;;;;5034038;28;20481;-63
2023/03/18 06:53:28;;;;;;;6.73;5.53;;;10.60;99.90;;;;;;5034699;28;20449;-63
2023/03/18 06:55:55;;;;;;;8.00;5.00;;;10.60;99.90;;;;;;5034386;28;20448;-63
2023/03/18 06:58:23;;;;;;;7.43;5.90;;;10.70;99.90;;;;;;5034515;28;20448;-63
2023/03/18 07:00:50;;;;;;;8.73;5.20;;;10.70;99.90;;;;;;5034179;28;20491;-63
2023/03/18 07:03:18;;;;;;;7.23;5.10;;;10.80;99.90;;;;;;5034195;28;20446;-63
2023/03/18 07:05:45;;;;;;;10.03;4.77;;;10.80;99.90;;;;;;5034359;28;20465;-63
2023/03/18 07:08:11;;;;;;;7.13;5.23;;;11.00;99.90;;;;;;5035045;28;20448;-63
2023/03/18 07:10:39;;;;;;;7.90;4.77;;;11.00;99.90;;;;;;5034303;28;20487;-64
2023/03/18 07:13:07;;;;;;;8.17;4.30;;;11.10;99.90;;;;;;5034366;28;20445;-63
2023/03/18 07:15:34;;;;;;;5.20;4.70;;;11.20;99.90;;;;;;5036342;28;21008;-62
2023/03/18 07:18:01;;;;;;;7.63;5.27;;;11.30;99.90;;;;;;5034858;28;20449;-62
2023/03/18 07:20:31;;;;;;;7.83;4.70;;;11.40;99.90;;;;;;5034197;28;20454;-63
2023/03/18 07:22:58;;;;;;;6.00;5.07;;;11.50;99.90;;;;;;5034162;28;20875;-63
2023/03/18 07:25:24;;;;;;;9.77;4.63;;;11.50;99.90;;;;;;5033657;28;20477;-64
2023/03/18 07:27:52;;;;;;;5.27;3.83;;;11.60;99.90;;;;;;5033964;28;20464;-63
2023/03/18 07:30:19;;;;;;;5.80;3.80;;;11.70;99.90;;;;;;5033620;28;20480;-63
2023/03/18 07:32:45;;;;;;;5.30;3.90;;;11.80;99.90;;;;;;5034841;28;20453;-63
2023/03/18 07:35:13;;;;;;;7.03;4.40;;;11.80;99.90;;;;;;5033813;28;20465;-63
2023/03/18 07:37:42;;;;;;;6.00;4.20;;;11.80;99.90;;;;;;5035057;28;20445;-64
2023/03/18 07:40:10;;;;;;;4.20;3.80;;;11.90;99.90;;;;;;5034050;28;20448;-64
2023/03/18 07:42:37;;;;;;;11.00;4.80;;;11.90;99.90;;;;;;5034407;28;20448;-64
2023/03/18 07:45:04;;;;;;;5.83;4.33;;;12.00;99.90;;;;;;5033190;28;20465;-62
2023/03/18 07:47:31;;;;;;;6.77;4.63;;;12.10;99.90;;;;;;5033922;28;20445;-63
2023/03/18 07:49:58;;;;;;;6.20;4.23;;;12.10;99.90;;;;;;5033494;28;20449;-62
2023/03/18 07:52:25;;;;;;;5.67;4.27;;;12.20;99.90;;;;;;5033811;28;20485;-63
2023/03/18 07:54:54;;;;;;;6.07;4.00;;;12.30;99.90;;;;;;5033370;28;20491;-63
2023/03/18 07:57:20;;;;;;;5.30;4.27;;;12.40;99.90;;;;;;5033616;28;20540;-63
2023/03/18 07:59:48;;;;;;;5.07;4.03;;;12.40;99.90;;;;;;5033696;28;20455;-62
2023/03/18 08:02:15;;;;;;;4.80;4.10;;;12.40;99.90;;;;;;5033473;28;20966;-63
2023/03/18 08:04:42;;;;;;;6.10;3.90;;;12.40;99.90;;;;;;5033414;28;20465;-63
2023/03/18 08:07:10;;;;;;;5.77;4.20;;;12.50;99.90;;;;;;5033729;28;20441;-63
2023/03/18 08:09:37;;;;;;;4.03;3.57;;;12.40;99.90;;;;;;5033521;28;20540;-64
2023/03/18 08:12:05;;;;;;;3.90;3.50;;;12.40;99.90;;;;;;5033511;28;21068;-63
2023/03/18 08:14:32;;;;;;;4.77;3.60;;;12.40;99.90;;;;;;5033251;28;20468;-63
2023/03/18 08:16:59;;;;;;;5.33;3.83;;;12.30;99.90;;;;;;5033612;28;20456;-63
2023/03/18 08:19:26;;;;;;;5.47;4.47;;;12.20;99.90;;;;;;5033364;28;20448;-63
2023/03/18 08:21:53;;;;;;;5.07;3.40;;;12.20;99.90;;;;;;5033423;28;20437;-63
2023/03/18 08:24:20;;;;;;;6.80;3.87;;;12.30;99.90;;;;;;5033892;28;20493;-63
2023/03/18 08:26:47;;;;;;;4.40;3.20;;;12.50;99.90;;;;;;5033874;28;20448;-64
2023/03/18 08:29:15;;;;;;;4.70;3.57;;;12.70;99.90;;;;;;5034357;28;20449;-64
2023/03/18 08:31:42;;;;;;;6.10;4.40;;;12.80;99.90;;;;;;5033710;28;20488;-63
2023/03/18 08:34:09;;;;;;;6.60;3.77;;;12.90;99.90;;;;;;5034146;28;20464;-64
2023/03/18 08:36:36;;;;;;;5.00;3.63;;;13.10;99.90;;;;;;5034326;28;20826;-63
2023/03/18 08:39:04;;;;;;;4.47;3.40;;;13.40;99.90;;;;;;5034796;28;20471;-63
2023/03/18 08:41:32;;;;;;;4.13;2.97;;;13.60;99.90;;;;;;5035135;28;20524;-62
2023/03/18 08:43:59;;;;;;;5.57;3.27;;;13.90;99.90;;;;;;5034891;28;20467;-63
2023/03/18 08:46:27;;;;;;;5.83;4.00;;;14.10;99.90;;;;;;5033949;28;20444;-63
2023/03/18 08:48:54;;;;;;;6.43;3.60;;;14.30;99.90;;;;;;5033023;28;20441;-63
2023/03/18 08:51:22;;;;;;;5.80;4.10;;;14.40;99.90;;;;;;5032524;28;20588;-62
2023/03/18 08:53:48;;;;;;;8.27;3.93;;;14.50;99.90;;;;;;5034347;28;20527;-63
2023/03/18 08:56:15;;;;;;;8.50;3.50;;;14.60;99.90;;;;;;5034382;28;20443;-63
2023/03/18 08:58:43;;;;;;;4.60;3.80;;;14.50;99.90;;;;;;5037523;28;20448;-64
2023/03/18 09:01:10;;;;;;;5.07;3.83;;;14.50;99.90;;;;;;5037138;28;20447;-62
2023/03/18 09:03:38;;;;;;;5.00;4.07;;;14.60;99.90;;;;;;5036667;28;20464;-63
2023/03/18 09:06:05;;;;;;;3.50;3.20;;;14.80;99.90;;;;;;5036814;28;20838;-62
2023/03/18 09:08:32;;;;;;;4.90;3.47;;;15.00;99.90;;;;;;5037082;28;20449;-63
2023/03/18 09:11:00;;;;;;;5.57;4.00;;;15.20;99.90;;;;;;5036465;28;21053;-62
2023/03/18 09:13:26;;;;;;;4.80;3.37;;;15.30;99.90;;;;;;5037277;28;20453;-64
2023/03/18 09:15:53;;;;;;;4.23;3.63;;;15.40;99.90;;;;;;5036770;28;20445;-63
2023/03/18 09:18:21;;;;;;;3.63;3.30;;;15.50;99.90;;;;;;5036526;28;20536;-62
2023/03/18 09:20:49;;;;;;;6.17;3.20;;;15.60;99.90;;;;;;5036640;28;20449;-62
2023/03/18 09:23:17;;;;;;;6.23;3.37;;;15.80;99.90;;;;;;5036450;28;20453;-61
2023/03/18 09:25:45;;;;;;;6.07;3.70;;;15.80;99.90;;;;;;5035840;28;20476;-63
2023/03/18 09:28:13;;;;;;;4.70;3.67;;;15.90;99.90;;;;;;5035774;28;20453;-62
2023/03/18 09:30:41;;;;;;;3.80;3.40;;;16.00;99.90;;;;;;5035812;28;20496;-64
2023/03/18 09:33:10;;;;;;;8.20;3.70;;;16.10;99.90;;;;;;5035465;28;20959;-62
2023/03/18 09:35:36;;;;;;;4.00;3.27;;;16.10;99.90;;;;;;5035800;28;20464;-63
2023/03/18 09:38:06;;;;;;;3.37;3.07;;;16.20;99.90;;;;;;5035478;28;20961;-63
2023/03/18 09:40:35;;;;;;;4.07;3.10;;;16.30;99.90;;;;;;5035615;28;20441;-63
2023/03/18 09:43:19;;;;;;;5.63;3.40;;;16.40;99.90;;;;;;5035852;28;20433;-60
2023/03/18 09:45:58;;;;;;;7.60;4.90;;;16.50;99.90;;;;;;5035172;28;20464;-61
2023/03/18 09:48:51;;;;;;;3.10;2.80;;;16.40;99.90;;;;;;5035569;28;20528;-63
2023/03/18 09:51:28;;;;;;;4.63;3.60;;;16.50;99.90;;;;;;5034648;28;20559;-63
2023/03/18 09:54:01;;;;;;;5.03;3.50;;;16.60;99.90;;;;;;5034807;28;20469;-63
2023/03/18 09:56:33;;;;;;;4.50;3.33;;;16.70;99.90;;;;;;5035485;28;20430;-63
2023/03/18 09:59:03;;;;;;;4.10;3.47;;;16.80;99.30;;;;;;5036113;28;20460;-63
2023/03/18 10:01:34;;;;;;;5.40;4.10;;;16.90;98.60;;;;;;5036110;28;20445;-63
2023/03/18 10:04:06;;;;;;;4.10;3.70;;;16.90;98.20;;;;;;5035660;28;20471;-62
2023/03/18 10:06:33;;;;;;;5.10;3.33;;;16.80;97.20;;;;;;5035612;28;20429;-61
2023/03/18 10:09:09;;;;;;;4.70;4.17;;;16.70;97.30;;;;;;5035887;28;20441;-63
2023/03/18 10:11:41;;;;;;;3.30;3.10;;;16.50;97.30;;;;;;5035901;28;20970;-62
2023/03/18 10:14:20;;;;;;;4.50;3.70;;;16.50;97.10;;;;;;5035645;28;20899;-63
2023/03/18 10:17:00;;;;;;;4.03;3.30;;;16.40;96.50;;;;;;5035516;28;20436;-61
2023/03/18 10:19:27;;;;;;;4.03;3.60;;;16.40;95.70;;;;;;5035394;28;20431;-64
2023/03/18 10:22:08;;;;;;;6.10;3.50;;;16.40;95.00;;;;;;5035230;28;20448;-61
2023/03/18 10:24:42;;;;;;;5.20;3.17;;;16.40;94.70;;;;;;5058635;22;20570;-62
2023/03/18 10:27:17;;;;;;;4.80;3.93;;;16.40;94.60;;;;;;5035524;28;20440;-64
2023/03/18 10:29:49;;;;;;;3.93;3.27;;;16.40;94.90;;;;;;5035621;28;20529;-63
2023/03/18 10:32:27;;;;;;;7.37;3.83;;;16.40;94.70;;;;;;5036039;28;20523;-63
2023/03/18 10:35:15;;;;;;;4.83;3.63;;;16.50;94.50;;;;;;5035158;28;20492;-63
2023/03/18 10:37:51;;;;;;;6.30;3.60;;;16.60;93.80;;;;;;5034973;28;20516;-62
2023/03/18 10:40:20;;;;;;;4.40;3.60;;;16.80;93.10;;;;;;5035119;28;20937;-62
2023/03/18 10:42:49;;;;;;;3.77;3.27;;;16.80;92.50;;;;;;5035987;28;20445;-63
2023/03/18 10:45:22;;;;;;;8.43;3.87;;;17.00;92.10;;;;;;5037937;28;20480;-63
2023/03/18 10:47:56;;;;;;;4.37;3.97;;;17.10;91.40;;;;;;5039836;28;20488;-64
2023/03/18 10:50:29;;;;;;;4.70;4.20;;;17.20;91.10;;;;;;5038993;28;20434;-63
2023/03/18 10:53:03;;;;;;;5.43;3.67;;;17.30;90.20;;;;;;5040516;28;20465;-64
2023/03/18 10:55:38;;;;;;;5.70;3.40;;;17.50;89.50;;;;;;5041044;28;20978;-62
2023/03/18 10:58:15;;;;;;;3.67;3.00;;;17.70;87.30;;;;;;5041803;28;20439;-63
2023/03/18 11:00:42;;;;;;;4.10;3.53;;;17.80;85.40;;;;;;5037417;28;20469;-64
2023/03/18 11:03:22;;;;;;;5.27;3.60;;;17.80;84.30;;;;;;5036060;28;20834;-63
2023/03/18 11:05:50;;;;;;;6.03;3.60;;;17.60;83.40;;;;;;5037924;28;20828;-63
2023/03/18 11:08:33;;;;;;;5.70;3.30;;;17.40;83.70;;;;;;5037917;28;20449;-64
2023/03/18 11:11:16;;;;;;;3.70;3.37;;;17.30;85.00;;;;;;5037561;28;20437;-63
2023/03/18 11:13:46;;;;;;;6.07;3.23;;;17.30;85.70;;;;;;5037542;28;20425;-64
2023/03/18 11:16:22;;;;;;;5.47;3.97;;;17.20;85.30;;;;;;5037613;28;20520;-62
2023/03/18 11:18:51;;;;;;;4.97;3.90;;;17.10;84.40;;;;;;5035493;28;20429;-62
2023/03/18 11:21:19;;;;;;;4.80;3.40;;;17.00;84.60;;;;;;5035825;28;20543;-64
2023/03/18 11:24:06;;;;;;;8.43;3.80;;;17.00;85.10;;;;;;5035730;28;20473;-63
2023/03/18 11:26:45;;;;;;;3.60;2.90;;;17.00;85.20;;;;;;5035297;28;21001;-64
2023/03/18 11:29:16;;;;;;;6.67;4.50;;;17.10;85.30;;;;;;5034693;28;20511;-63
2023/03/18 11:31:53;;;;;;;3.50;2.93;;;17.20;85.10;;;;;;5034624;28;20476;-65
2023/03/18 11:34:21;;;;;;;4.20;3.10;;;17.40;84.40;;;;;;5034489;28;20555;-64
2023/03/18 11:36:57;;;;;;;4.47;3.80;;;17.40;82.50;;;;;;5034172;28;20445;-64
2023/03/18 11:39:26;;;;;;;3.30;3.00;;;17.40;81.80;;;;;;5034342;28;20437;-64
2023/03/18 11:41:54;;;;;;;4.83;3.00;;;17.30;81.50;;;;;;5035737;28;20451;-64
2023/03/18 11:44:28;;;;;;;5.60;3.40;;;17.40;82.50;;;;;;5034724;28;20465;-64
2023/03/18 11:46:59;;;;;;;5.60;3.20;;;17.40;81.00;;;;;;5034806;28;20460;-63
2023/03/18 11:49:28;;;;;;;4.27;3.87;;;17.40;80.60;;;;;;5034966;28;20445;-64
2023/03/18 11:52:09;;;;;;;4.80;4.10;;;17.40;80.10;;;;;;5035349;28;20480;-65
2023/03/18 11:54:58;;;;;;;4.10;3.70;;;17.40;80.10;;;;;;5034517;28;20544;-63
2023/03/18 11:57:37;;;;;;;4.03;3.50;;;17.40;79.90;;;;;;5034369;28;20444;-63
2023/03/18 12:00:17;;;;;;;5.50;4.17;;;17.40;79.60;;;;;;5034852;28;20433;-65
2023/03/18 12:03:14;;;;;;;4.13;3.70;;;17.30;79.70;;;;;;5036297;28;20429;-63
2023/03/18 12:05:53;;;;;;;5.10;3.67;;;17.30;80.10;;;;;;5044538;28;20500;-63
2023/03/18 12:08:32;;;;;;;6.60;3.37;;;17.40;80.10;;;;;;5038823;28;20469;-64
2023/03/18 12:11:09;;;;;;;4.13;3.33;;;17.50;79.60;;;;;;5036758;28;20434;-64
2023/03/18 12:13:48;;;;;;;4.43;3.70;;;17.70;78.60;;;;;;5036811;28;20469;-64
2023/03/18 12:16:27;;;;;;;4.03;3.63;;;17.80;77.50;;;;;;5035358;28;20473;-64
2023/03/18 12:19:09;;;;;;;5.80;3.20;;;17.90;76.50;;;;;;5037194;28;20436;-63
2023/03/18 12:21:57;;;;;;;3.60;3.30;;;18.00;76.20;;;;;;5039912;28;20422;-63
2023/03/18 12:24:50;;;;;;;6.87;4.60;;;18.20;75.40;;;;;;5039603;28;20476;-64
2023/03/18 12:27:27;;;;;;;6.30;4.37;;;18.20;74.30;;;;;;5039766;28;20487;-64
2023/03/18 12:30:10;;;;;;;3.70;3.40;;;18.40;74.30;;;;;;5038784;28;20436;-64
2023/03/18 12:32:42;;;;;;;3.70;3.30;;;18.40;73.20;;;;;;5039621;28;20475;-64
2023/03/18 12:35:23;;;;;;;3.70;3.20;;;18.40;72.40;;;;;;5041067;28;20809;-63
2023/03/18 12:38:07;;;;;;;3.87;3.03;;;18.20;73.00;;;;;;5039918;28;20860;-64
2023/03/18 12:40:46;;;;;;;4.63;3.07;;;18.10;72.70;;;;;;5041177;28;20487;-63
2023/03/18 12:43:36;;;;;;;4.97;3.27;;;18.30;72.70;;;;;;5041404;28;20452;-64
2023/03/18 12:46:13;;;;;;;3.60;3.30;;;18.40;71.50;;;;;;5038512;28;20561;-63
2023/03/18 12:48:50;;;;;;;3.57;3.27;;;18.30;70.80;;;;;;5038936;28;20443;-63
2023/03/18 12:51:24;;;;;;;3.20;2.90;;;18.20;70.40;;;;;;5039034;28;20922;-63
2023/03/18 12:53:54;;;;;;;3.40;3.10;;;18.00;70.50;;;;;;5038443;28;20475;-63
2023/03/18 12:56:24;;;;;;;4.00;3.17;;;17.80;70.90;;;;;;5038777;28;20469;-63
2023/03/18 12:58:55;;;;;;;4.63;3.30;;;17.80;71.30;;;;;;5040562;28;21010;-64
2023/03/18 13:01:30;;;;;;;3.23;2.60;;;17.90;71.00;;;;;;5041997;28;20970;-63